Time;durP1;ratioP1;P1;durP2;ratioP2;P2;SDS_P1;SDS_P2;PMS_P1;PMS_P2;Temp;Humidity;BMP_temperature;BMP_pressure;BME280_temperature;BME280_humidity;BME280_pressure;Samples;Min_cycle;Max_cycle;Signal;HPM_P1;HPM_P2
2021/05/24 00:00:11;;;;;;;1.55;0.80;;;21.70;48.60;;;;;;5117269;27;20043;-38
2021/05/24 00:02:39;;;;;;;1.13;0.75;;;21.70;48.60;;;;;;5135258;27;20505;-38
2021/05/24 00:05:09;;;;;;;1.50;0.80;;;21.70;48.60;;;;;;5135400;27;20539;-38
2021/05/24 00:07:37;;;;;;;0.90;0.70;;;21.70;48.60;;;;;;5133372;27;20047;-39
2021/05/24 00:10:06;;;;;;;1.92;0.80;;;21.70;48.60;;;;;;5133708;27;20050;-38
2021/05/24 00:12:33;;;;;;;4.28;0.73;;;21.70;48.60;;;;;;5135428;27;20050;-39
2021/05/24 00:15:01;;;;;;;3.50;0.88;;;21.80;48.60;;;;;;5134815;27;20055;-38
2021/05/24 00:17:28;;;;;;;0.70;0.60;;;21.70;48.60;;;;;;5133547;27;20047;-38
2021/05/24 00:19:56;;;;;;;1.42;0.70;;;21.70;48.50;;;;;;5133884;27;20050;-39
2021/05/24 00:22:23;;;;;;;1.30;0.80;;;21.70;48.60;;;;;;5135088;27;20047;-39
2021/05/24 00:24:50;;;;;;;1.58;0.80;;;21.70;48.50;;;;;;5135088;27;20107;-39
2021/05/24 00:27:17;;;;;;;1.48;0.70;;;21.70;48.50;;;;;;5133403;27;20043;-38
2021/05/24 00:29:44;;;;;;;2.75;0.80;;;21.70;48.50;;;;;;5134493;27;20092;-38
2021/05/24 00:32:12;;;;;;;2.30;0.80;;;21.70;48.50;;;;;;5134699;27;20571;-39
2021/05/24 00:34:39;;;;;;;1.25;0.73;;;21.70;48.50;;;;;;5134894;27;20100;-38
2021/05/24 00:37:06;;;;;;;1.52;0.73;;;21.70;48.50;;;;;;5133035;27;20039;-39
2021/05/24 00:39:33;;;;;;;2.03;0.80;;;21.70;48.40;;;;;;5134900;27;20043;-38
2021/05/24 00:42:01;;;;;;;2.38;0.93;;;21.70;49.00;;;;;;5133117;27;20043;-38
2021/05/24 00:44:29;;;;;;;1.10;0.90;;;21.70;48.40;;;;;;5116162;27;20479;-38
2021/05/24 00:46:56;;;;;;;1.27;0.88;;;21.70;48.40;;;;;;5134712;27;20050;-38
2021/05/24 00:49:25;;;;;;;1.73;0.80;;;21.70;48.40;;;;;;5134340;27;20039;-38
2021/05/24 00:51:54;;;;;;;2.63;1.17;;;21.70;48.40;;;;;;5132707;27;20043;-38
2021/05/24 00:54:23;;;;;;;1.27;0.77;;;21.70;48.40;;;;;;5134293;27;20543;-39
2021/05/24 00:56:53;;;;;;;0.82;0.50;;;21.70;48.40;;;;;;5116272;27;20466;-38
2021/05/24 00:59:21;;;;;;;2.17;0.95;;;21.70;48.40;;;;;;5134209;27;20039;-38
2021/05/24 01:01:48;;;;;;;2.33;0.90;;;21.70;48.40;;;;;;5134547;27;20047;-38
2021/05/24 01:04:17;;;;;;;2.58;0.93;;;21.70;48.40;;;;;;5132888;27;20043;-38
2021/05/24 01:06:45;;;;;;;1.88;1.02;;;21.70;48.30;;;;;;5122963;27;20395;-38
2021/05/24 01:09:13;;;;;;;2.13;1.15;;;21.70;48.30;;;;;;5132722;27;20449;-38
2021/05/24 01:11:40;;;;;;;1.80;1.15;;;21.70;48.30;;;;;;5114664;27;20047;-38
2021/05/24 01:14:07;;;;;;;1.55;1.02;;;21.70;48.30;;;;;;5115560;27;20051;-38
2021/05/24 01:16:34;;;;;;;1.75;0.90;;;21.70;48.30;;;;;;5132776;27;20051;-39
2021/05/24 01:19:02;;;;;;;4.18;1.30;;;21.70;48.30;;;;;;5133721;27;20129;-38
2021/05/24 01:21:30;;;;;;;1.90;0.88;;;21.70;48.30;;;;;;5115560;27;20057;-38
2021/05/24 01:23:57;;;;;;;2.25;0.80;;;21.70;48.20;;;;;;5134122;27;20049;-38
2021/05/24 01:26:24;;;;;;;2.97;1.35;;;21.70;48.30;;;;;;5133549;27;20047;-38
2021/05/24 01:28:51;;;;;;;1.35;0.90;;;21.70;48.30;;;;;;5133741;27;20570;-38
2021/05/24 01:31:18;;;;;;;1.50;0.90;;;21.70;48.20;;;;;;5133672;27;20100;-38
2021/05/24 01:33:45;;;;;;;1.67;1.05;;;21.70;48.20;;;;;;5133755;27;20100;-38
2021/05/24 01:36:13;;;;;;;1.90;1.10;;;21.70;48.20;;;;;;5133443;27;20510;-38
2021/05/24 01:38:42;;;;;;;2.08;1.30;;;21.70;48.20;;;;;;5132235;27;20039;-38
2021/05/24 01:41:11;;;;;;;2.30;0.93;;;21.70;48.10;;;;;;5133360;27;20043;-38
2021/05/24 01:43:40;;;;;;;1.88;0.80;;;21.70;48.10;;;;;;5133110;27;20042;-38
2021/05/24 01:46:07;;;;;;;1.33;0.95;;;21.70;48.70;;;;;;5133281;27;20050;-38
2021/05/24 01:48:37;;;;;;;2.20;1.02;;;21.70;48.10;;;;;;5133098;27;20043;-38
2021/05/24 01:51:05;;;;;;;2.00;1.30;;;21.70;48.10;;;;;;5133315;27;20043;-38
2021/05/24 01:53:34;;;;;;;2.92;0.90;;;21.70;48.10;;;;;;5133474;27;20039;-38
2021/05/24 01:56:01;;;;;;;5.30;1.63;;;21.70;48.10;;;;;;5133352;27;20403;-38
2021/05/24 01:58:30;;;;;;;2.20;1.20;;;21.70;48.10;;;;;;5132179;27;20101;-38
2021/05/24 02:01:15;;;;;;;3.65;1.52;;;21.70;48.10;;;;;;5114324;27;20138;-38
2021/05/24 02:03:45;;;;;;;1.90;1.05;;;21.70;48.00;;;;;;5123642;27;20039;-38
2021/05/24 02:06:12;;;;;;;1.88;0.95;;;21.70;48.00;;;;;;5097905;28;20043;-38
2021/05/24 02:08:40;;;;;;;2.20;1.15;;;21.60;47.90;;;;;;5131834;27;20051;-39
2021/05/24 02:11:07;;;;;;;1.88;1.25;;;21.70;48.00;;;;;;5131974;28;20058;-38
2021/05/24 02:13:34;;;;;;;2.00;1.13;;;21.70;48.00;;;;;;5132045;27;20059;-38
2021/05/24 02:16:01;;;;;;;1.30;0.90;;;21.70;47.90;;;;;;5133143;28;20205;-38
2021/05/24 02:18:28;;;;;;;1.83;0.95;;;21.70;47.90;;;;;;5133077;28;20096;-37
2021/05/24 02:20:55;;;;;;;2.30;1.25;;;21.60;47.90;;;;;;5131793;28;20100;-38
2021/05/24 02:23:27;;;;;;;2.50;1.42;;;21.70;47.90;;;;;;5131358;28;20047;-38
2021/05/24 02:25:54;;;;;;;2.25;1.08;;;21.70;47.90;;;;;;5133180;28;20050;-38
2021/05/24 02:28:22;;;;;;;1.73;1.20;;;21.60;47.80;;;;;;5132675;28;20100;-38
2021/05/24 02:30:49;;;;;;;1.83;0.90;;;21.70;47.90;;;;;;5132693;28;20047;-38
2021/05/24 02:33:16;;;;;;;2.25;0.90;;;21.60;47.80;;;;;;5131577;28;20051;-38
2021/05/24 02:35:44;;;;;;;1.88;1.13;;;21.60;47.70;;;;;;5114814;28;20051;-38
2021/05/24 02:38:12;;;;;;;2.10;1.40;;;21.70;47.80;;;;;;5132521;28;20539;-38
2021/05/24 02:40:39;;;;;;;4.78;1.17;;;21.70;47.80;;;;;;5114486;28;20415;-39
2021/05/24 02:43:06;;;;;;;1.85;1.00;;;21.60;47.70;;;;;;5133061;28;20082;-39
2021/05/24 02:45:34;;;;;;;2.65;1.40;;;21.60;48.30;;;;;;5132732;28;20039;-38
2021/05/24 02:48:01;;;;;;;2.15;1.02;;;21.60;47.70;;;;;;5131550;28;20096;-38
2021/05/24 02:50:28;;;;;;;2.50;1.10;;;21.60;47.70;;;;;;5114770;28;20088;-39
2021/05/24 02:52:56;;;;;;;3.10;1.02;;;21.60;47.70;;;;;;5132375;28;20043;-38
2021/05/24 02:55:24;;;;;;;1.75;1.08;;;21.60;47.60;;;;;;5131913;27;20057;-40
2021/05/24 02:57:51;;;;;;;2.25;1.13;;;21.60;47.60;;;;;;5134886;27;20394;-39
2021/05/24 03:00:19;;;;;;;1.50;1.10;;;21.60;47.60;;;;;;5136651;27;20111;-38
2021/05/24 03:02:47;;;;;;;1.55;0.95;;;21.60;47.60;;;;;;5135321;27;20047;-39
2021/05/24 03:05:16;;;;;;;2.20;0.90;;;21.60;47.50;;;;;;5135339;27;20390;-38
2021/05/24 03:07:44;;;;;;;2.60;1.10;;;21.60;47.50;;;;;;5118144;27;20051;-39
2021/05/24 03:10:14;;;;;;;2.05;1.00;;;21.60;47.50;;;;;;5135322;27;20054;-38
2021/05/24 03:12:41;;;;;;;1.67;1.08;;;21.60;47.50;;;;;;5136658;27;20047;-38
2021/05/24 03:15:10;;;;;;;3.13;1.25;;;21.60;47.50;;;;;;5136351;27;20055;-38
2021/05/24 03:17:39;;;;;;;2.80;1.25;;;21.60;47.50;;;;;;5135467;27;20040;-38
2021/05/24 03:20:11;;;;;;;1.67;1.00;;;21.60;47.50;;;;;;5136665;27;20134;-38
2021/05/24 03:22:38;;;;;;;1.40;0.80;;;21.60;48.00;;;;;;5136425;27;20092;-37
2021/05/24 03:25:07;;;;;;;1.95;1.17;;;21.60;47.50;;;;;;5136003;27;20039;-38
2021/05/24 03:27:35;;;;;;;1.35;0.88;;;21.60;47.50;;;;;;5134813;27;20428;-38
2021/05/24 03:30:05;;;;;;;1.58;0.95;;;21.60;47.40;;;;;;5117675;27;20092;-38
2021/05/24 03:32:33;;;;;;;3.60;0.90;;;21.60;47.40;;;;;;5135985;27;20104;-38
2021/05/24 03:35:00;;;;;;;2.08;1.00;;;21.60;47.40;;;;;;5135640;27;20047;-38
2021/05/24 03:37:27;;;;;;;1.67;0.90;;;21.60;47.40;;;;;;5134309;27;20047;-38
2021/05/24 03:39:55;;;;;;;3.25;1.10;;;21.60;47.40;;;;;;5136095;27;20116;-38
2021/05/24 03:42:22;;;;;;;1.45;0.82;;;21.60;47.90;;;;;;5135984;27;20459;-38
2021/05/24 03:44:50;;;;;;;1.45;0.88;;;21.60;47.30;;;;;;5134463;27;20107;-38
2021/05/24 03:47:17;;;;;;;2.97;1.00;;;21.60;47.30;;;;;;5117888;27;20044;-40
2021/05/24 03:49:45;;;;;;;1.33;0.88;;;21.60;47.30;;;;;;5134169;27;20047;-38
2021/05/24 03:52:15;;;;;;;4.30;1.10;;;21.60;47.30;;;;;;5134031;27;20128;-38
2021/05/24 03:54:42;;;;;;;2.05;1.20;;;21.60;47.30;;;;;;5134001;27;20047;-38
2021/05/24 03:57:11;;;;;;;1.52;0.85;;;21.60;47.30;;;;;;5134260;27;20051;-38
2021/05/24 03:59:39;;;;;;;3.50;0.82;;;21.60;47.30;;;;;;5133754;27;20087;-37
2021/05/24 04:02:07;;;;;;;1.80;1.00;;;21.60;47.30;;;;;;5133833;27;20043;-38
2021/05/24 04:04:34;;;;;;;1.60;0.90;;;21.60;47.30;;;;;;5135453;27;20062;-38
2021/05/24 04:07:02;;;;;;;1.30;0.90;;;21.60;47.30;;;;;;5132898;27;20043;-38
2021/05/24 04:09:30;;;;;;;3.72;1.00;;;21.60;47.30;;;;;;5133858;27;20434;-38
2021/05/24 04:11:57;;;;;;;1.52;0.95;;;21.60;47.30;;;;;;5135229;27;20062;-38
2021/05/24 04:14:25;;;;;;;1.52;1.00;;;21.60;47.30;;;;;;5133642;27;20051;-38
2021/05/24 04:16:52;;;;;;;1.67;1.08;;;21.60;47.30;;;;;;5134076;27;20567;-39
2021/05/24 04:19:19;;;;;;;1.40;0.95;;;21.60;47.20;;;;;;5134877;27;20092;-38
2021/05/24 04:21:47;;;;;;;2.55;1.08;;;21.60;47.20;;;;;;5135495;27;20115;-38
2021/05/24 04:24:15;;;;;;;1.42;0.80;;;21.60;47.20;;;;;;5116735;27;20463;-38
2021/05/24 04:26:42;;;;;;;1.77;0.93;;;21.60;47.20;;;;;;5133383;27;20498;-39
2021/05/24 04:29:09;;;;;;;1.40;1.00;;;21.60;47.20;;;;;;5135005;27;20051;-38
2021/05/24 04:31:36;;;;;;;3.25;0.88;;;21.60;47.20;;;;;;5134627;27;20047;-39
2021/05/24 04:34:04;;;;;;;1.63;0.93;;;21.60;47.20;;;;;;5134592;27;20051;-38
2021/05/24 04:36:31;;;;;;;2.80;0.90;;;21.60;47.20;;;;;;5134946;27;20047;-38
2021/05/24 04:38:58;;;;;;;3.63;0.90;;;21.60;47.20;;;;;;5133010;27;20039;-38
2021/05/24 04:41:25;;;;;;;1.27;0.80;;;21.60;47.20;;;;;;5134517;27;20047;-38
2021/05/24 04:43:57;;;;;;;1.00;0.85;;;21.60;47.20;;;;;;5133076;27;20436;-39
2021/05/24 04:46:24;;;;;;;2.45;0.77;;;21.60;47.20;;;;;;5134171;27;20039;-38
2021/05/24 04:48:51;;;;;;;1.67;0.90;;;21.60;47.20;;;;;;5134761;27;20108;-38
2021/05/24 04:51:18;;;;;;;1.50;1.17;;;21.60;47.10;;;;;;5134387;27;20043;-39
2021/05/24 04:53:45;;;;;;;0.85;0.60;;;21.60;47.10;;;;;;5134237;27;20487;-38
2021/05/24 04:56:12;;;;;;;1.73;0.70;;;21.60;47.20;;;;;;5133193;27;20461;-38
2021/05/24 04:58:39;;;;;;;1.67;0.93;;;21.60;47.20;;;;;;5133958;27;20043;-39
2021/05/24 05:01:07;;;;;;;1.42;0.90;;;21.60;47.20;;;;;;5134074;27;20096;-38
2021/05/24 05:03:34;;;;;;;1.60;1.08;;;21.60;47.20;;;;;;5133941;27;20091;-38
2021/05/24 05:06:02;;;;;;;1.98;1.13;;;21.60;47.20;;;;;;5132070;27;20131;-38
2021/05/24 05:08:29;;;;;;;1.98;0.82;;;21.60;47.10;;;;;;5134094;27;20047;-38
2021/05/24 05:10:56;;;;;;;1.13;0.70;;;21.60;47.20;;;;;;5116183;27;20052;-39
2021/05/24 05:13:24;;;;;;;1.55;0.73;;;21.60;47.10;;;;;;5131735;27;20062;-38
2021/05/24 05:15:51;;;;;;;2.05;0.90;;;21.60;47.10;;;;;;5134335;27;20047;-39
2021/05/24 05:18:20;;;;;;;1.23;0.70;;;21.60;47.20;;;;;;5133832;27;20039;-41
2021/05/24 05:20:50;;;;;;;1.77;0.80;;;21.60;47.20;;;;;;5134070;27;20047;-38
2021/05/24 05:23:17;;;;;;;1.40;0.88;;;21.60;47.10;;;;;;5132674;27;20116;-38
2021/05/24 05:25:44;;;;;;;2.15;0.90;;;21.60;47.20;;;;;;5133919;27;20043;-38
2021/05/24 05:28:11;;;;;;;1.17;0.55;;;21.70;47.20;;;;;;5133694;27;20054;-38
2021/05/24 05:30:38;;;;;;;1.00;0.82;;;21.60;47.20;;;;;;5133553;27;20099;-38
2021/05/24 05:33:05;;;;;;;2.17;0.82;;;21.70;47.30;;;;;;5118514;27;20052;-38
2021/05/24 05:35:33;;;;;;;3.13;1.02;;;21.60;47.20;;;;;;5108867;27;20142;-39
2021/05/24 05:38:01;;;;;;;3.53;0.75;;;21.70;47.30;;;;;;5115275;27;20043;-38
2021/05/24 05:40:31;;;;;;;2.03;1.00;;;21.70;47.30;;;;;;5133686;27;20047;-38
2021/05/24 05:42:58;;;;;;;1.17;0.80;;;21.70;47.30;;;;;;5132581;27;20055;-38
2021/05/24 05:45:25;;;;;;;1.77;0.90;;;21.70;47.30;;;;;;5133314;27;20047;-38
2021/05/24 05:47:53;;;;;;;1.35;0.80;;;21.70;47.30;;;;;;5115433;27;20371;-38
2021/05/24 05:50:20;;;;;;;1.08;0.55;;;21.70;47.30;;;;;;5133250;27;20074;-38
2021/05/24 05:52:47;;;;;;;1.23;0.80;;;21.70;47.30;;;;;;5113676;27;20095;-38
2021/05/24 05:55:14;;;;;;;1.80;0.82;;;21.70;47.30;;;;;;5133180;27;20051;-38
2021/05/24 05:57:42;;;;;;;1.02;0.68;;;21.70;47.30;;;;;;5132089;27;20058;-39
2021/05/24 06:00:09;;;;;;;0.82;0.70;;;21.70;47.30;;;;;;5131837;27;20042;-38
2021/05/24 06:02:36;;;;;;;0.90;0.70;;;21.70;47.30;;;;;;5131648;27;20051;-38
2021/05/24 06:05:10;;;;;;;0.85;0.70;;;21.70;47.30;;;;;;5131588;27;20126;-39
2021/05/24 06:07:37;;;;;;;1.45;0.73;;;21.70;47.40;;;;;;5082148;27;20052;-39
2021/05/24 06:10:06;;;;;;;1.38;0.77;;;21.70;47.40;;;;;;5132021;27;20051;-39
2021/05/24 06:12:33;;;;;;;2.75;0.85;;;21.70;47.40;;;;;;5097343;28;20056;-38
2021/05/24 06:15:00;;;;;;;2.78;0.73;;;21.70;47.40;;;;;;5131478;27;20391;-39
2021/05/24 06:17:28;;;;;;;0.90;0.70;;;21.70;47.40;;;;;;5133372;27;20050;-39
2021/05/24 06:19:55;;;;;;;2.45;0.90;;;21.70;47.40;;;;;;5132978;28;20061;-38
2021/05/24 06:22:22;;;;;;;0.73;0.60;;;21.70;47.40;;;;;;5133088;28;20039;-40
2021/05/24 06:24:49;;;;;;;0.95;0.77;;;21.70;47.40;;;;;;5132905;28;20047;-38
2021/05/24 06:27:17;;;;;;;0.93;0.70;;;21.70;47.40;;;;;;5131601;28;20043;-38
2021/05/24 06:29:44;;;;;;;1.80;0.73;;;21.70;47.50;;;;;;5131616;27;20051;-39
2021/05/24 06:32:11;;;;;;;1.15;0.70;;;21.70;47.40;;;;;;5137061;27;20047;-39
2021/05/24 06:34:38;;;;;;;0.93;0.65;;;21.70;47.40;;;;;;5136907;27;20457;-38
2021/05/24 06:37:05;;;;;;;1.45;0.80;;;21.70;47.40;;;;;;5135829;27;20119;-39
2021/05/24 06:39:32;;;;;;;0.82;0.65;;;21.70;47.40;;;;;;5134438;27;20167;-39
2021/05/24 06:41:59;;;;;;;2.30;0.70;;;21.70;47.40;;;;;;5137181;27;20039;-39
2021/05/24 06:44:26;;;;;;;1.20;0.63;;;21.70;47.40;;;;;;5135651;27;20054;-39
2021/05/24 06:46:53;;;;;;;1.83;0.73;;;21.70;47.40;;;;;;5135719;27;20443;-38
2021/05/24 06:49:20;;;;;;;1.33;0.80;;;21.70;47.40;;;;;;5134465;27;20444;-38
2021/05/24 06:51:49;;;;;;;1.98;0.60;;;21.70;47.40;;;;;;5137029;27;20096;-39
2021/05/24 06:54:16;;;;;;;0.95;0.80;;;21.70;47.50;;;;;;5136668;27;20043;-39
2021/05/24 06:56:44;;;;;;;1.27;0.70;;;21.70;47.50;;;;;;5136435;27;20055;-38
2021/05/24 06:59:11;;;;;;;1.00;0.70;;;21.70;47.50;;;;;;5118282;27;20099;-38
2021/05/24 07:01:39;;;;;;;1.42;0.70;;;21.70;47.50;;;;;;5136493;27;20509;-38
2021/05/24 07:04:07;;;;;;;2.45;1.05;;;21.70;47.50;;;;;;5136274;27;20047;-39
2021/05/24 07:06:34;;;;;;;1.42;0.80;;;21.70;47.50;;;;;;5130110;27;20066;-38
2021/05/24 07:09:06;;;;;;;1.90;0.80;;;21.70;47.50;;;;;;5119182;27;20043;-39
2021/05/24 07:11:33;;;;;;;2.20;0.70;;;21.70;47.50;;;;;;5134860;27;20063;-38
2021/05/24 07:14:00;;;;;;;1.60;0.80;;;21.70;47.50;;;;;;5136220;27;20162;-39
2021/05/24 07:16:28;;;;;;;1.35;0.70;;;21.70;47.50;;;;;;5136323;27;20043;-39
2021/05/24 07:18:56;;;;;;;1.25;0.60;;;21.70;47.50;;;;;;5136591;27;20402;-38
2021/05/24 07:21:24;;;;;;;1.98;0.90;;;21.70;47.50;;;;;;5135434;27;20402;-38
2021/05/24 07:23:52;;;;;;;2.15;0.60;;;21.70;47.50;;;;;;5136168;27;20050;-39
2021/05/24 07:26:23;;;;;;;0.88;0.63;;;21.70;47.50;;;;;;5135830;27;20043;-38
2021/05/24 07:28:50;;;;;;;1.33;0.80;;;21.70;47.50;;;;;;5136155;27;20402;-38
2021/05/24 07:31:17;;;;;;;1.50;0.70;;;21.70;47.60;;;;;;5136058;27;20442;-38
2021/05/24 07:33:44;;;;;;;1.58;0.68;;;21.70;47.50;;;;;;5135779;27;20051;-38
2021/05/24 07:36:11;;;;;;;0.88;0.60;;;21.70;47.50;;;;;;5134574;27;20050;-38
2021/05/24 07:38:38;;;;;;;1.52;0.63;;;21.70;47.60;;;;;;5135715;27;20051;-39
2021/05/24 07:41:06;;;;;;;1.00;0.68;;;21.70;47.60;;;;;;5134132;27;20043;-38
2021/05/24 07:43:33;;;;;;;1.25;0.70;;;21.80;47.70;;;;;;5116727;27;20039;-38
2021/05/24 07:46:00;;;;;;;0.82;0.57;;;21.70;47.60;;;;;;5134867;27;20051;-38
2021/05/24 07:48:27;;;;;;;0.95;0.52;;;21.70;47.60;;;;;;5135840;27;20047;-38
2021/05/24 07:50:54;;;;;;;1.58;0.70;;;21.70;47.60;;;;;;5135573;27;20047;-38
2021/05/24 07:53:22;;;;;;;1.73;0.77;;;21.70;47.60;;;;;;5135843;27;20459;-38
2021/05/24 07:55:49;;;;;;;0.70;0.40;;;21.70;47.60;;;;;;5135424;27;20539;-38
2021/05/24 07:58:16;;;;;;;1.67;0.50;;;21.70;47.70;;;;;;5133947;27;20406;-38
2021/05/24 08:00:43;;;;;;;0.70;0.55;;;21.70;47.70;;;;;;5133931;27;20054;-39
2021/05/24 08:03:10;;;;;;;1.00;0.60;;;21.80;47.80;;;;;;5133714;27;20088;-38
2021/05/24 08:05:37;;;;;;;1.25;0.60;;;21.80;47.80;;;;;;5134830;27;20092;-38
2021/05/24 08:08:05;;;;;;;0.70;0.57;;;21.70;47.70;;;;;;5135366;27;20051;-38
2021/05/24 08:10:33;;;;;;;1.23;0.82;;;21.70;47.70;;;;;;5134620;27;20043;-38
2021/05/24 08:13:00;;;;;;;0.85;0.52;;;21.70;47.70;;;;;;5133779;27;20047;-38
2021/05/24 08:15:32;;;;;;;0.40;0.40;;;21.80;47.90;;;;;;5134522;27;20443;-38
2021/05/24 08:18:02;;;;;;;1.05;0.55;;;21.80;47.90;;;;;;5135332;27;20057;-38
2021/05/24 08:20:31;;;;;;;1.35;0.70;;;21.80;47.90;;;;;;5135263;27;20051;-38
2021/05/24 08:22:58;;;;;;;1.50;0.68;;;21.80;47.90;;;;;;5133358;27;20532;-38
2021/05/24 08:25:26;;;;;;;1.85;0.70;;;21.80;47.90;;;;;;5116559;27;20510;-39
2021/05/24 08:27:53;;;;;;;2.72;0.80;;;21.80;47.90;;;;;;5133437;27;20100;-39
2021/05/24 08:30:31;;;;;;;0.85;0.50;;;21.80;47.90;;;;;;5133737;27;20473;-38
2021/05/24 08:32:58;;;;;;;0.63;0.60;;;21.80;47.90;;;;;;5116480;27;20415;-38
2021/05/24 08:35:25;;;;;;;1.15;0.80;;;21.80;47.90;;;;;;5134735;27;20050;-39
2021/05/24 08:37:53;;;;;;;0.65;0.50;;;21.80;48.00;;;;;;5133421;27;20047;-39
2021/05/24 08:40:20;;;;;;;1.17;0.60;;;21.80;48.00;;;;;;5134514;27;20043;-39
2021/05/24 08:42:48;;;;;;;0.90;0.60;;;21.80;48.00;;;;;;5134886;27;20126;-39
2021/05/24 08:45:15;;;;;;;0.60;0.60;;;21.80;48.00;;;;;;5134406;27;20115;-39
2021/05/24 08:47:43;;;;;;;0.57;0.47;;;21.80;48.10;;;;;;5134753;27;20448;-38
2021/05/24 08:50:14;;;;;;;1.00;0.70;;;21.80;48.70;;;;;;5134405;27;20490;-38
2021/05/24 08:52:42;;;;;;;0.95;0.60;;;21.80;48.70;;;;;;5133049;27;20044;-38
2021/05/24 08:55:11;;;;;;;1.15;0.70;;;21.80;48.10;;;;;;5115354;27;20047;-39
2021/05/24 08:57:40;;;;;;;2.15;0.70;;;21.80;48.10;;;;;;5133099;27;20050;-38
2021/05/24 09:00:13;;;;;;;0.95;0.70;;;21.80;48.10;;;;;;5132888;27;20449;-38
2021/05/24 09:02:44;;;;;;;1.55;0.70;;;21.80;48.10;;;;;;5116797;27;20039;-40
2021/05/24 09:05:12;;;;;;;1.15;0.65;;;21.80;48.20;;;;;;5134199;27;20444;-39
2021/05/24 09:07:57;;;;;;;0.80;0.50;;;21.80;48.20;;;;;;5122392;27;20383;-38
2021/05/24 09:10:28;;;;;;;0.90;0.60;;;21.80;48.20;;;;;;5132508;27;20043;-38
2021/05/24 09:12:56;;;;;;;1.00;0.60;;;21.80;48.30;;;;;;5133884;27;20047;-38
2021/05/24 09:15:25;;;;;;;0.70;0.50;;;21.80;48.30;;;;;;5132508;27;20490;-38
2021/05/24 09:17:57;;;;;;;3.15;0.80;;;21.80;48.30;;;;;;5134089;27;20047;-38
2021/05/24 09:20:24;;;;;;;2.95;0.60;;;21.80;48.30;;;;;;5134163;27;20043;-38
2021/05/24 09:23:19;;;;;;;0.93;0.52;;;21.80;48.30;;;;;;5133699;27;20068;-39
2021/05/24 09:25:51;;;;;;;2.92;0.80;;;21.80;48.30;;;;;;5134069;27;20039;-39
2021/05/24 09:28:27;;;;;;;0.90;0.60;;;21.80;49.00;;;;;;5133533;27;20043;-39
2021/05/24 09:31:00;;;;;;;2.28;0.82;;;21.80;48.40;;;;;;5132648;27;20061;-38
2021/05/24 09:33:28;;;;;;;2.73;0.90;;;21.80;48.40;;;;;;5131927;27;20047;-38
2021/05/24 09:36:02;;;;;;;1.45;0.60;;;21.80;48.40;;;;;;5133997;27;20406;-39
2021/05/24 09:38:42;;;;;;;1.00;0.52;;;21.80;48.50;;;;;;5133428;27;20088;-38
2021/05/24 09:41:11;;;;;;;0.88;0.65;;;21.80;48.50;;;;;;5132374;27;20054;-38
2021/05/24 09:43:45;;;;;;;0.80;0.50;;;21.80;48.60;;;;;;5132292;27;20091;-39
2021/05/24 09:46:24;;;;;;;1.48;0.60;;;21.80;48.60;;;;;;5133636;27;20281;-39
2021/05/24 09:49:02;;;;;;;1.55;0.77;;;21.80;48.60;;;;;;5133680;27;20043;-39
2021/05/24 09:51:31;;;;;;;;;;;21.80;48.60;;;;;;5134040;27;20201;-39
2021/05/24 09:54:05;;;;;;;0.80;0.60;;;21.80;48.60;;;;;;5133660;27;20310;-38
2021/05/24 09:56:35;;;;;;;1.00;0.63;;;21.80;48.70;;;;;;5133071;27;20490;-39
2021/05/24 09:59:04;;;;;;;1.05;0.50;;;21.80;48.70;;;;;;5133412;27;20039;-38
2021/05/24 10:01:45;;;;;;;0.70;0.60;;;21.80;48.70;;;;;;5133343;27;20039;-39
2021/05/24 10:04:24;;;;;;;1.02;0.50;;;21.80;49.40;;;;;;5116367;27;20051;-40
2021/05/24 10:06:54;;;;;;;0.77;0.55;;;21.80;48.80;;;;;;5128124;27;20096;-38
2021/05/24 10:09:22;;;;;;;1.52;0.60;;;21.80;48.80;;;;;;5132610;27;20047;-38
2021/05/24 10:11:52;;;;;;;0.85;0.50;;;21.80;48.80;;;;;;5131563;27;20482;-38
2021/05/24 10:14:25;;;;;;;1.23;0.70;;;21.80;48.80;;;;;;5132705;27;20095;-38
2021/05/24 10:17:02;;;;;;;0.90;0.63;;;21.80;48.90;;;;;;5131669;27;20126;-38
2021/05/24 10:19:30;;;;;;;1.27;0.60;;;21.80;49.00;;;;;;5133222;27;20122;-38
2021/05/24 10:21:58;;;;;;;0.88;0.50;;;21.80;49.00;;;;;;5131404;28;20049;-38
2021/05/24 10:24:26;;;;;;;1.73;0.60;;;21.80;49.00;;;;;;5132758;28;20043;-38
2021/05/24 10:27:00;;;;;;;0.73;0.57;;;21.80;49.00;;;;;;5132773;28;20043;-38
2021/05/24 10:29:29;;;;;;;1.33;0.73;;;21.80;49.00;;;;;;5132732;28;20048;-38
2021/05/24 10:32:00;;;;;;;0.70;0.50;;;21.80;49.00;;;;;;5131440;28;20114;-38
2021/05/24 10:34:38;;;;;;;1.30;0.80;;;21.80;49.10;;;;;;5131605;28;20377;-38
2021/05/24 10:37:14;;;;;;;2.20;0.60;;;21.80;49.10;;;;;;5113662;28;20048;-38
2021/05/24 10:40:06;;;;;;;2.42;0.65;;;21.80;49.10;;;;;;5132596;28;20503;-38
2021/05/24 10:42:40;;;;;;;1.40;0.70;;;21.80;49.20;;;;;;5133175;28;20046;-38
2021/05/24 10:45:25;;;;;;;1.23;0.60;;;21.80;49.20;;;;;;5132959;28;20047;-38
2021/05/24 10:47:59;;;;;;;0.70;0.60;;;21.80;49.20;;;;;;5115167;28;20043;-38
2021/05/24 10:50:32;;;;;;;1.48;0.75;;;21.80;49.20;;;;;;5132595;28;20046;-39
2021/05/24 10:53:06;;;;;;;1.02;0.40;;;21.80;49.30;;;;;;5131308;28;20513;-38
2021/05/24 10:55:40;;;;;;;0.75;0.60;;;21.90;49.40;;;;;;5132494;28;20490;-38
2021/05/24 10:58:10;;;;;;;;;;;21.80;49.40;;;;;;5133227;28;20053;-38
2021/05/24 11:00:51;;;;;;;1.15;0.65;;;21.80;49.40;;;;;;5132769;28;19923;-38
2021/05/24 11:03:19;;;;;;;0.80;0.40;;;21.80;49.50;;;;;;5132595;28;20126;-37
2021/05/24 11:06:08;;;;;;;0.90;0.60;;;21.80;49.50;;;;;;5127797;28;20091;-38
2021/05/24 11:08:39;;;;;;;0.80;0.70;;;21.90;49.60;;;;;;5119646;28;20043;-38
2021/05/24 11:11:26;;;;;;;1.17;0.70;;;21.90;49.70;;;;;;5132434;28;20494;-37
2021/05/24 11:14:04;;;;;;;4.13;0.57;;;21.90;49.70;;;;;;5132433;28;20418;-38
2021/05/24 11:16:33;;;;;;;1.15;0.55;;;21.90;49.80;;;;;;5130978;27;20047;-43
2021/05/24 11:19:14;;;;;;;1.15;0.65;;;21.90;49.80;;;;;;5116691;27;20051;-38
2021/05/24 11:21:53;;;;;;;1.23;0.73;;;21.80;49.80;;;;;;5134611;27;20046;-38
2021/05/24 11:24:36;;;;;;;0.80;0.50;;;21.80;50.40;;;;;;5117963;27;20068;-38
2021/05/24 11:27:12;;;;;;;0.98;0.60;;;21.80;49.80;;;;;;5136256;27;20081;-38
2021/05/24 11:29:47;;;;;;;1.10;0.63;;;21.90;49.90;;;;;;5135905;27;20050;-39
2021/05/24 11:32:25;;;;;;;1.13;0.90;;;21.80;49.90;;;;;;5134480;27;20103;-38
2021/05/24 11:34:53;;;;;;;2.92;0.65;;;21.80;49.90;;;;;;5136154;27;20398;-38
2021/05/24 11:37:40;;;;;;;1.40;0.60;;;21.80;50.00;;;;;;5135902;27;20057;-38
2021/05/24 11:40:17;;;;;;;1.80;0.50;;;21.80;50.30;;;;;;5136119;27;20050;-38
2021/05/24 11:42:45;;;;;;;0.73;0.55;;;21.80;50.00;;;;;;5135804;27;20039;-38
2021/05/24 11:45:22;;;;;;;0.73;0.57;;;21.80;50.10;;;;;;5117914;27;20043;-38
2021/05/24 11:47:59;;;;;;;1.55;0.70;;;21.80;50.10;;;;;;5134352;27;20047;-38
2021/05/24 11:50:28;;;;;;;1.75;0.80;;;21.80;50.10;;;;;;5134392;27;20047;-38
2021/05/24 11:52:55;;;;;;;0.77;0.68;;;21.80;50.20;;;;;;5134549;27;20055;-38
2021/05/24 11:55:22;;;;;;;0.98;0.77;;;21.80;50.20;;;;;;5135694;27;20051;-38
2021/05/24 11:57:50;;;;;;;0.98;0.65;;;21.80;50.90;;;;;;5135556;27;20047;-38
2021/05/24 12:00:20;;;;;;;1.02;0.55;;;21.80;50.30;;;;;;5135468;27;20444;-39
2021/05/24 12:02:48;;;;;;;1.15;0.80;;;21.90;50.30;;;;;;5133706;27;20039;-39
2021/05/24 12:05:20;;;;;;;1.55;0.73;;;21.80;50.30;;;;;;5134230;27;20444;-38
2021/05/24 12:07:49;;;;;;;1.20;0.73;;;21.90;50.40;;;;;;5134746;27;20039;-38
2021/05/24 12:10:16;;;;;;;2.22;0.77;;;21.90;50.40;;;;;;5133948;27;20100;-39
2021/05/24 12:12:43;;;;;;;0.93;0.60;;;21.90;50.40;;;;;;5135486;27;20126;-38
2021/05/24 12:15:17;;;;;;;0.75;0.57;;;21.90;50.50;;;;;;5134902;27;20419;-38
2021/05/24 12:17:50;;;;;;;1.25;0.60;;;21.90;50.50;;;;;;5134343;27;20494;-38
2021/05/24 12:20:20;;;;;;;1.63;0.70;;;21.90;50.50;;;;;;5134022;27;20047;-39
2021/05/24 12:22:47;;;;;;;1.40;0.70;;;21.90;50.50;;;;;;5135570;27;20421;-38
2021/05/24 12:25:17;;;;;;;2.17;0.70;;;21.90;50.50;;;;;;5133483;27;20490;-38
2021/05/24 12:27:46;;;;;;;1.77;1.00;;;21.90;50.50;;;;;;5134359;27;20047;-38
2021/05/24 12:30:22;;;;;;;1.52;0.90;;;21.90;50.60;;;;;;5134493;27;20491;-38
2021/05/24 12:32:54;;;;;;;1.10;0.80;;;21.90;50.70;;;;;;5133368;27;20039;-38
2021/05/24 12:35:28;;;;;;;0.95;0.70;;;21.90;50.70;;;;;;5133339;27;20070;-39
2021/05/24 12:38:19;;;;;;;1.38;0.80;;;21.90;50.70;;;;;;5133254;27;20047;-39
2021/05/24 12:40:55;;;;;;;2.83;0.80;;;21.90;50.80;;;;;;5134292;27;20035;-39
2021/05/24 12:47:18;;;;;;;2.85;0.63;;;21.90;51.10;;;;;;5126149;27;20043;-39
2021/05/24 12:49:47;;;;;;;14.93;0.95;;;21.90;51.40;;;;;;5133788;27;20051;-55
2021/05/24 12:53:22;;;;;;;9.23;2.50;;;21.90;52.90;;;;;;5089573;27;20711;-62
2021/05/24 12:55:52;;;;;;;7.45;2.40;;;22.00;54.20;;;;;;5083743;28;20051;-53
2021/05/24 12:58:23;;;;;;;11.63;2.30;;;21.60;59.10;;;;;;5067541;28;20076;-54
2021/05/24 13:00:58;;;;;;;15.35;2.75;;;21.30;59.30;;;;;;5067429;28;20051;-53
2021/05/24 13:03:43;;;;;;;13.50;2.40;;;21.30;58.80;;;;;;5068316;28;20045;-54